sensor_id;sensor_type;location;lat;lon;timestamp;pressure;altitude;pressure_sealevel;temperature;humidity
55685;BME280;41883;49.544;8.646;2023-07-13T00:01:57;100313.50;;;20.73;nan
55685;BME280;41883;49.544;8.646;2023-07-13T00:04:23;100329.19;;;20.76;nan
55685;BME280;41883;49.544;8.646;2023-07-13T00:06:50;100329.63;;;20.73;nan
55685;BME280;41883;49.544;8.646;2023-07-13T00:09:16;100326.34;;;20.71;nan
55685;BME280;41883;49.544;8.646;2023-07-13T00:11:42;100338.97;;;20.70;nan
55685;BME280;41883;49.544;8.646;2023-07-13T00:14:08;100338.22;;;20.63;nan
55685;BME280;41883;49.544;8.646;2023-07-13T00:16:34;100340.28;;;20.61;nan
55685;BME280;41883;49.544;8.646;2023-07-13T00:19:00;100336.78;;;20.61;nan
55685;BME280;41883;49.544;8.646;2023-07-13T00:21:26;100342.63;;;20.57;nan
55685;BME280;41883;49.544;8.646;2023-07-13T00:23:51;100337.63;;;20.54;nan
55685;BME280;41883;49.544;8.646;2023-07-13T00:26:16;100332.63;;;20.40;nan
55685;BME280;41883;49.544;8.646;2023-07-13T00:28:42;100335.16;;;20.34;nan
55685;BME280;41883;49.544;8.646;2023-07-13T00:31:08;100332.53;;;20.28;nan
55685;BME280;41883;49.544;8.646;2023-07-13T00:33:36;100328.06;;;20.22;nan
55685;BME280;41883;49.544;8.646;2023-07-13T00:36:02;100334.34;;;20.09;nan
55685;BME280;41883;49.544;8.646;2023-07-13T00:38:27;100333.97;;;20.05;nan
55685;BME280;41883;49.544;8.646;2023-07-13T00:40:53;100341.78;;;20.07;nan
55685;BME280;41883;49.544;8.646;2023-07-13T00:43:19;100338.13;;;20.01;nan
55685;BME280;41883;49.544;8.646;2023-07-13T00:48:14;100328.31;;;19.88;nan
55685;BME280;41883;49.544;8.646;2023-07-13T00:50:39;100330.66;;;19.78;nan
55685;BME280;41883;49.544;8.646;2023-07-13T00:53:05;100329.06;;;19.70;nan
55685;BME280;41883;49.544;8.646;2023-07-13T00:55:30;100313.19;;;19.62;nan
55685;BME280;41883;49.544;8.646;2023-07-13T00:57:55;100329.34;;;19.49;nan
55685;BME280;41883;49.544;8.646;2023-07-13T01:00:21;100334.38;;;19.39;nan
55685;BME280;41883;49.544;8.646;2023-07-13T01:02:47;100322.06;;;19.24;nan
55685;BME280;41883;49.544;8.646;2023-07-13T01:05:14;100322.50;;;19.21;nan
55685;BME280;41883;49.544;8.646;2023-07-13T01:07:40;100317.16;;;19.15;nan
55685;BME280;41883;49.544;8.646;2023-07-13T01:12:31;100317.25;;;18.95;nan
55685;BME280;41883;49.544;8.646;2023-07-13T01:14:59;100313.56;;;18.82;nan
55685;BME280;41883;49.544;8.646;2023-07-13T01:17:25;100317.72;;;18.72;nan
55685;BME280;41883;49.544;8.646;2023-07-13T01:19:51;100321.03;;;18.67;nan
55685;BME280;41883;49.544;8.646;2023-07-13T01:22:17;100327.44;;;18.59;nan
55685;BME280;41883;49.544;8.646;2023-07-13T01:24:44;100326.41;;;18.54;nan
55685;BME280;41883;49.544;8.646;2023-07-13T01:27:10;100321.47;;;18.51;nan
55685;BME280;41883;49.544;8.646;2023-07-13T01:29:36;100337.34;;;18.45;nan
55685;BME280;41883;49.544;8.646;2023-07-13T01:32:07;100333.03;;;18.38;nan
55685;BME280;41883;49.544;8.646;2023-07-13T01:34:33;100331.78;;;18.27;nan
55685;BME280;41883;49.544;8.646;2023-07-13T01:36:58;100333.44;;;18.15;nan
55685;BME280;41883;49.544;8.646;2023-07-13T01:39:23;100317.38;;;18.01;nan
55685;BME280;41883;49.544;8.646;2023-07-13T01:41:48;100323.94;;;17.92;nan
55685;BME280;41883;49.544;8.646;2023-07-13T01:44:14;100330.91;;;17.80;nan
55685;BME280;41883;49.544;8.646;2023-07-13T01:46:39;100331.53;;;17.69;nan
55685;BME280;41883;49.544;8.646;2023-07-13T01:49:04;100332.53;;;17.61;nan
55685;BME280;41883;49.544;8.646;2023-07-13T01:51:29;100316.06;;;17.57;nan
55685;BME280;41883;49.544;8.646;2023-07-13T01:53:55;100332.53;;;17.54;nan
55685;BME280;41883;49.544;8.646;2023-07-13T01:56:20;100325.53;;;17.53;nan
55685;BME280;41883;49.544;8.646;2023-07-13T01:58:45;100345.25;;;17.46;nan
55685;BME280;41883;49.544;8.646;2023-07-13T02:01:10;100347.28;;;17.37;nan
55685;BME280;41883;49.544;8.646;2023-07-13T02:03:35;100337.41;;;17.37;nan
55685;BME280;41883;49.544;8.646;2023-07-13T02:06:01;100336.19;;;17.40;nan
55685;BME280;41883;49.544;8.646;2023-07-13T02:08:26;100350.19;;;17.49;nan
55685;BME280;41883;49.544;8.646;2023-07-13T02:10:51;100364.16;;;17.44;nan
55685;BME280;41883;49.544;8.646;2023-07-13T02:13:16;100354.28;;;17.38;nan
55685;BME280;41883;49.544;8.646;2023-07-13T02:15:41;100355.47;;;17.29;nan
55685;BME280;41883;49.544;8.646;2023-07-13T02:18:07;100360.78;;;17.22;nan
55685;BME280;41883;49.544;8.646;2023-07-13T02:20:32;100361.56;;;17.16;nan
55685;BME280;41883;49.544;8.646;2023-07-13T02:22:57;100357.84;;;17.10;nan
55685;BME280;41883;49.544;8.646;2023-07-13T02:25:22;100359.91;;;17.08;nan
55685;BME280;41883;49.544;8.646;2023-07-13T02:27:48;100358.00;;;16.95;nan
55685;BME280;41883;49.544;8.646;2023-07-13T02:30:13;100359.41;;;16.91;nan
55685;BME280;41883;49.544;8.646;2023-07-13T02:32:39;100357.78;;;16.90;nan
55685;BME280;41883;49.544;8.646;2023-07-13T02:35:04;100361.84;;;16.86;nan
55685;BME280;41883;49.544;8.646;2023-07-13T02:37:29;100352.78;;;16.81;nan
55685;BME280;41883;49.544;8.646;2023-07-13T02:39:55;100353.53;;;16.74;nan
55685;BME280;41883;49.544;8.646;2023-07-13T02:44:45;100522.78;;;16.73;nan
55685;BME280;41883;49.544;8.646;2023-07-13T02:47:10;100525.06;;;16.76;nan
55685;BME280;41883;49.544;8.646;2023-07-13T02:49:35;100531.22;;;16.77;nan
55685;BME280;41883;49.544;8.646;2023-07-13T02:52:01;100531.41;;;16.75;nan
55685;BME280;41883;49.544;8.646;2023-07-13T02:54:26;100530.34;;;16.70;nan
55685;BME280;41883;49.544;8.646;2023-07-13T02:56:51;100533.41;;;16.67;nan
55685;BME280;41883;49.544;8.646;2023-07-13T02:59:16;100531.31;;;16.62;nan
55685;BME280;41883;49.544;8.646;2023-07-13T03:01:41;100522.84;;;16.59;nan
55685;BME280;41883;49.544;8.646;2023-07-13T03:04:07;100523.22;;;16.55;nan
55685;BME280;41883;49.544;8.646;2023-07-13T03:06:32;100522.78;;;16.52;nan
55685;BME280;41883;49.544;8.646;2023-07-13T03:08:58;100522.50;;;16.47;nan
55685;BME280;41883;49.544;8.646;2023-07-13T03:11:23;100536.88;;;16.46;nan
55685;BME280;41883;49.544;8.646;2023-07-13T03:13:48;100524.38;;;16.46;nan
55685;BME280;41883;49.544;8.646;2023-07-13T03:16:14;100524.19;;;16.48;nan
55685;BME280;41883;49.544;8.646;2023-07-13T03:18:41;100528.69;;;16.47;nan
55685;BME280;41883;49.544;8.646;2023-07-13T03:21:06;100529.91;;;16.45;nan
55685;BME280;41883;49.544;8.646;2023-07-13T03:23:31;100529.13;;;16.51;nan
55685;BME280;41883;49.544;8.646;2023-07-13T03:26:08;100528.75;;;16.54;nan
55685;BME280;41883;49.544;8.646;2023-07-13T03:28:34;100533.47;;;16.52;nan
55685;BME280;41883;49.544;8.646;2023-07-13T03:31:03;100531.16;;;16.49;nan
55685;BME280;41883;49.544;8.646;2023-07-13T03:33:29;100529.28;;;16.43;nan
55685;BME280;41883;49.544;8.646;2023-07-13T03:35:54;100532.03;;;16.34;nan
55685;BME280;41883;49.544;8.646;2023-07-13T03:38:19;100544.50;;;16.27;nan
55685;BME280;41883;49.544;8.646;2023-07-13T03:40:45;100539.94;;;16.21;nan
55685;BME280;41883;49.544;8.646;2023-07-13T03:43:10;100540.41;;;16.10;nan
55685;BME280;41883;49.544;8.646;2023-07-13T03:45:37;100535.19;;;16.02;nan
55685;BME280;41883;49.544;8.646;2023-07-13T03:48:03;100544.38;;;15.99;nan
55685;BME280;41883;49.544;8.646;2023-07-13T03:50:28;100538.78;;;15.94;nan
55685;BME280;41883;49.544;8.646;2023-07-13T03:52:53;100536.66;;;15.89;nan
55685;BME280;41883;49.544;8.646;2023-07-13T03:55:19;100542.84;;;15.90;nan
55685;BME280;41883;49.544;8.646;2023-07-13T03:57:44;100543.84;;;15.89;nan
55685;BME280;41883;49.544;8.646;2023-07-13T04:00:09;100543.19;;;15.87;nan
55685;BME280;41883;49.544;8.646;2023-07-13T04:02:35;100539.72;;;15.86;nan
55685;BME280;41883;49.544;8.646;2023-07-13T04:05:02;100544.88;;;15.88;nan
55685;BME280;41883;49.544;8.646;2023-07-13T04:07:27;100550.47;;;15.93;nan
55685;BME280;41883;49.544;8.646;2023-07-13T04:09:52;100546.22;;;15.99;nan
55685;BME280;41883;49.544;8.646;2023-07-13T04:12:18;100545.00;;;16.01;nan
55685;BME280;41883;49.544;8.646;2023-07-13T04:14:43;100545.00;;;16.01;nan
55685;BME280;41883;49.544;8.646;2023-07-13T04:17:08;100547.88;;;16.00;nan
55685;BME280;41883;49.544;8.646;2023-07-13T04:19:33;100544.38;;;15.99;nan
55685;BME280;41883;49.544;8.646;2023-07-13T04:21:59;100546.59;;;15.96;nan
55685;BME280;41883;49.544;8.646;2023-07-13T04:24:24;100552.75;;;15.96;nan
55685;BME280;41883;49.544;8.646;2023-07-13T04:26:49;100550.81;;;16.05;nan
55685;BME280;41883;49.544;8.646;2023-07-13T04:29:14;100553.00;;;16.16;nan
55685;BME280;41883;49.544;8.646;2023-07-13T04:31:40;100557.47;;;16.30;nan
55685;BME280;41883;49.544;8.646;2023-07-13T04:34:05;100567.28;;;16.45;nan
55685;BME280;41883;49.544;8.646;2023-07-13T04:36:30;100564.47;;;16.53;nan
55685;BME280;41883;49.544;8.646;2023-07-13T04:38:56;100569.88;;;16.60;nan
55685;BME280;41883;49.544;8.646;2023-07-13T04:41:21;100565.63;;;16.65;nan
55685;BME280;41883;49.544;8.646;2023-07-13T04:43:47;100567.53;;;16.71;nan
55685;BME280;41883;49.544;8.646;2023-07-13T04:46:17;100569.38;;;16.71;nan
55685;BME280;41883;49.544;8.646;2023-07-13T04:48:43;100569.00;;;16.74;nan
55685;BME280;41883;49.544;8.646;2023-07-13T04:51:09;100571.78;;;16.81;nan
55685;BME280;41883;49.544;8.646;2023-07-13T04:53:34;100577.22;;;16.94;nan
55685;BME280;41883;49.544;8.646;2023-07-13T04:56:00;100583.69;;;17.06;nan
55685;BME280;41883;49.544;8.646;2023-07-13T04:58:25;100580.44;;;17.11;nan
55685;BME280;41883;49.544;8.646;2023-07-13T05:00:51;100579.84;;;17.15;nan
55685;BME280;41883;49.544;8.646;2023-07-13T05:03:16;100582.41;;;17.24;nan
55685;BME280;41883;49.544;8.646;2023-07-13T05:05:41;100580.78;;;17.29;nan
55685;BME280;41883;49.544;8.646;2023-07-13T05:08:06;100583.75;;;17.41;nan
55685;BME280;41883;49.544;8.646;2023-07-13T05:10:32;100582.75;;;17.49;nan
55685;BME280;41883;49.544;8.646;2023-07-13T05:12:57;100579.75;;;17.58;nan
55685;BME280;41883;49.544;8.646;2023-07-13T05:15:23;100591.94;;;17.68;nan
55685;BME280;41883;49.544;8.646;2023-07-13T05:17:48;100588.09;;;17.77;nan
55685;BME280;41883;49.544;8.646;2023-07-13T05:20:14;100595.38;;;17.83;nan
55685;BME280;41883;49.544;8.646;2023-07-13T05:22:39;100601.31;;;17.85;nan
55685;BME280;41883;49.544;8.646;2023-07-13T05:25:05;100602.97;;;17.86;nan
55685;BME280;41883;49.544;8.646;2023-07-13T05:27:30;100603.41;;;17.90;nan
55685;BME280;41883;49.544;8.646;2023-07-13T05:29:56;100605.06;;;17.91;nan
55685;BME280;41883;49.544;8.646;2023-07-13T05:32:21;100599.50;;;17.92;nan
55685;BME280;41883;49.544;8.646;2023-07-13T05:34:46;100609.41;;;17.98;nan
55685;BME280;41883;49.544;8.646;2023-07-13T05:37:11;100603.25;;;17.98;nan
55685;BME280;41883;49.544;8.646;2023-07-13T05:39:36;100603.88;;;18.00;nan
55685;BME280;41883;49.544;8.646;2023-07-13T05:42:02;100602.91;;;18.14;nan
55685;BME280;41883;49.544;8.646;2023-07-13T05:44:27;100608.97;;;18.36;nan
55685;BME280;41883;49.544;8.646;2023-07-13T05:46:52;100605.94;;;18.59;nan
55685;BME280;41883;49.544;8.646;2023-07-13T05:49:18;100609.09;;;18.83;nan
55685;BME280;41883;49.544;8.646;2023-07-13T05:51:43;100615.31;;;19.03;nan
55685;BME280;41883;49.544;8.646;2023-07-13T05:54:09;100621.06;;;19.14;nan
55685;BME280;41883;49.544;8.646;2023-07-13T05:56:34;100622.31;;;19.24;nan
55685;BME280;41883;49.544;8.646;2023-07-13T05:58:59;100627.06;;;19.56;nan
55685;BME280;41883;49.544;8.646;2023-07-13T06:01:24;100625.56;;;19.93;nan
55685;BME280;41883;49.544;8.646;2023-07-13T06:03:50;100627.53;;;20.24;nan
55685;BME280;41883;49.544;8.646;2023-07-13T06:06:15;100626.81;;;20.42;nan
55685;BME280;41883;49.544;8.646;2023-07-13T06:08:40;100622.44;;;20.48;nan
55685;BME280;41883;49.544;8.646;2023-07-13T06:11:07;100636.13;;;20.33;nan
55685;BME280;41883;49.544;8.646;2023-07-13T06:13:32;100646.53;;;20.23;nan
55685;BME280;41883;49.544;8.646;2023-07-13T06:15:58;100641.59;;;20.13;nan
55685;BME280;41883;49.544;8.646;2023-07-13T06:18:23;100641.41;;;20.08;nan
55685;BME280;41883;49.544;8.646;2023-07-13T06:20:49;100642.25;;;20.02;nan
55685;BME280;41883;49.544;8.646;2023-07-13T06:23:14;100645.91;;;20.21;nan
55685;BME280;41883;49.544;8.646;2023-07-13T06:25:39;100646.00;;;20.52;nan
55685;BME280;41883;49.544;8.646;2023-07-13T06:28:05;100649.31;;;21.18;nan
55685;BME280;41883;49.544;8.646;2023-07-13T06:30:30;100656.38;;;21.88;nan
55685;BME280;41883;49.544;8.646;2023-07-13T06:32:56;100654.56;;;22.18;nan
55685;BME280;41883;49.544;8.646;2023-07-13T06:35:22;100663.09;;;22.52;nan
55685;BME280;41883;49.544;8.646;2023-07-13T06:37:47;100667.41;;;23.02;nan
55685;BME280;41883;49.544;8.646;2023-07-13T06:40:12;100660.31;;;23.43;nan
55685;BME280;41883;49.544;8.646;2023-07-13T06:42:38;100671.97;;;23.90;nan
55685;BME280;41883;49.544;8.646;2023-07-13T06:45:03;100671.88;;;24.37;nan
55685;BME280;41883;49.544;8.646;2023-07-13T06:47:29;100670.56;;;24.80;nan
55685;BME280;41883;49.544;8.646;2023-07-13T06:49:54;100674.88;;;24.65;nan
55685;BME280;41883;49.544;8.646;2023-07-13T06:52:19;100671.31;;;24.93;nan
55685;BME280;41883;49.544;8.646;2023-07-13T06:54:45;100680.19;;;25.34;nan
55685;BME280;41883;49.544;8.646;2023-07-13T06:57:10;100681.59;;;25.75;nan
55685;BME280;41883;49.544;8.646;2023-07-13T06:59:35;100681.38;;;26.16;nan
55685;BME280;41883;49.544;8.646;2023-07-13T07:02:00;100686.13;;;26.53;nan
55685;BME280;41883;49.544;8.646;2023-07-13T07:04:25;100674.88;;;26.88;nan
55685;BME280;41883;49.544;8.646;2023-07-13T07:06:51;100687.69;;;27.20;nan
55685;BME280;41883;49.544;8.646;2023-07-13T07:09:17;100685.97;;;27.46;nan
55685;BME280;41883;49.544;8.646;2023-07-13T07:11:42;100684.22;;;27.67;nan
55685;BME280;41883;49.544;8.646;2023-07-13T07:14:07;100684.97;;;27.57;nan
55685;BME280;41883;49.544;8.646;2023-07-13T07:16:33;100696.94;;;27.56;nan
55685;BME280;41883;49.544;8.646;2023-07-13T07:18:58;100690.56;;;27.78;nan
55685;BME280;41883;49.544;8.646;2023-07-13T07:21:23;100686.63;;;28.01;nan
55685;BME280;41883;49.544;8.646;2023-07-13T07:23:48;100682.59;;;28.03;nan
55685;BME280;41883;49.544;8.646;2023-07-13T07:26:14;100690.81;;;28.19;nan
55685;BME280;41883;49.544;8.646;2023-07-13T07:28:39;100686.19;;;28.19;nan
55685;BME280;41883;49.544;8.646;2023-07-13T07:31:04;100682.88;;;28.07;nan
55685;BME280;41883;49.544;8.646;2023-07-13T07:33:29;100688.31;;;28.12;nan
55685;BME280;41883;49.544;8.646;2023-07-13T07:35:55;100685.13;;;28.25;nan
55685;BME280;41883;49.544;8.646;2023-07-13T07:38:20;100684.56;;;28.23;nan
55685;BME280;41883;49.544;8.646;2023-07-13T07:40:45;100686.56;;;28.48;nan
55685;BME280;41883;49.544;8.646;2023-07-13T07:43:11;100695.38;;;28.86;nan
55685;BME280;41883;49.544;8.646;2023-07-13T07:45:37;100695.66;;;28.79;nan
55685;BME280;41883;49.544;8.646;2023-07-13T07:48:03;100688.53;;;28.63;nan
55685;BME280;41883;49.544;8.646;2023-07-13T07:50:28;100688.56;;;28.84;nan
55685;BME280;41883;49.544;8.646;2023-07-13T07:52:54;100687.75;;;28.93;nan
55685;BME280;41883;49.544;8.646;2023-07-13T07:55:20;100683.72;;;29.52;nan
55685;BME280;41883;49.544;8.646;2023-07-13T07:57:46;100689.19;;;29.42;nan
55685;BME280;41883;49.544;8.646;2023-07-13T08:00:11;100687.78;;;29.55;nan
55685;BME280;41883;49.544;8.646;2023-07-13T08:02:37;100687.81;;;29.09;nan
55685;BME280;41883;49.544;8.646;2023-07-13T08:05:02;100689.69;;;28.88;nan
55685;BME280;41883;49.544;8.646;2023-07-13T08:07:27;100688.91;;;29.08;nan
55685;BME280;41883;49.544;8.646;2023-07-13T08:09:53;100694.09;;;29.09;nan
55685;BME280;41883;49.544;8.646;2023-07-13T08:12:18;100696.53;;;29.31;nan
55685;BME280;41883;49.544;8.646;2023-07-13T08:14:43;100687.81;;;29.14;nan
55685;BME280;41883;49.544;8.646;2023-07-13T08:17:08;100696.00;;;29.45;nan
55685;BME280;41883;49.544;8.646;2023-07-13T08:19:33;100688.47;;;30.27;nan
55685;BME280;41883;49.544;8.646;2023-07-13T08:21:58;100699.81;;;30.99;nan
55685;BME280;41883;49.544;8.646;2023-07-13T08:24:24;100685.75;;;31.16;nan
55685;BME280;41883;49.544;8.646;2023-07-13T08:26:50;100693.78;;;31.42;nan
55685;BME280;41883;49.544;8.646;2023-07-13T08:29:15;100682.47;;;31.53;nan
55685;BME280;41883;49.544;8.646;2023-07-13T08:31:40;100693.09;;;31.79;nan
55685;BME280;41883;49.544;8.646;2023-07-13T08:34:06;100685.28;;;31.43;nan
55685;BME280;41883;49.544;8.646;2023-07-13T08:36:31;100688.06;;;31.33;nan
55685;BME280;41883;49.544;8.646;2023-07-13T08:38:56;100684.06;;;31.25;nan
55685;BME280;41883;49.544;8.646;2023-07-13T08:41:22;100686.34;;;31.47;nan
55685;BME280;41883;49.544;8.646;2023-07-13T08:43:52;100689.25;;;32.09;nan
55685;BME280;41883;49.544;8.646;2023-07-13T08:46:26;100695.28;;;32.73;nan
55685;BME280;41883;49.544;8.646;2023-07-13T08:48:58;100682.66;;;33.43;nan
55685;BME280;41883;49.544;8.646;2023-07-13T08:51:30;100677.03;;;33.81;nan
55685;BME280;41883;49.544;8.646;2023-07-13T08:54:12;100669.03;;;34.12;nan
55685;BME280;41883;49.544;8.646;2023-07-13T08:56:40;100672.94;;;34.47;nan
55685;BME280;41883;49.544;8.646;2023-07-13T08:59:13;100676.34;;;34.67;nan
55685;BME280;41883;49.544;8.646;2023-07-13T09:04:26;100677.38;;;34.21;nan
55685;BME280;41883;49.544;8.646;2023-07-13T09:09:37;100673.19;;;33.96;nan
55685;BME280;41883;49.544;8.646;2023-07-13T09:17:52;100664.38;;;32.30;nan
55685;BME280;41883;49.544;8.646;2023-07-13T09:20:28;100668.59;;;31.98;nan
55685;BME280;41883;49.544;8.646;2023-07-13T09:22:55;100666.41;;;31.47;nan
55685;BME280;41883;49.544;8.646;2023-07-13T09:25:34;100664.53;;;31.37;nan
55685;BME280;41883;49.544;8.646;2023-07-13T09:28:02;100649.34;;;32.46;nan
55685;BME280;41883;49.544;8.646;2023-07-13T09:30:46;100661.78;;;33.75;nan
55685;BME280;41883;49.544;8.646;2023-07-13T09:33:13;100657.31;;;34.07;nan
55685;BME280;41883;49.544;8.646;2023-07-13T09:35:39;100656.59;;;33.87;nan
55685;BME280;41883;49.544;8.646;2023-07-13T09:43:13;100657.06;;;32.25;nan
55685;BME280;41883;49.544;8.646;2023-07-13T09:45:40;100650.69;;;31.28;nan
55685;BME280;41883;49.544;8.646;2023-07-13T09:48:10;100660.34;;;30.32;nan
55685;BME280;41883;49.544;8.646;2023-07-13T09:50:36;100655.63;;;29.72;nan
55685;BME280;41883;49.544;8.646;2023-07-13T09:53:02;100645.06;;;29.30;nan
55685;BME280;41883;49.544;8.646;2023-07-13T09:55:39;100651.28;;;28.69;nan
55685;BME280;41883;49.544;8.646;2023-07-13T09:58:17;100653.22;;;28.94;nan
55685;BME280;41883;49.544;8.646;2023-07-13T10:00:57;100653.44;;;28.67;nan
55685;BME280;41883;49.544;8.646;2023-07-13T10:03:25;100646.63;;;28.49;nan
55685;BME280;41883;49.544;8.646;2023-07-13T10:05:52;100652.22;;;28.27;nan
55685;BME280;41883;49.544;8.646;2023-07-13T10:08:21;100652.72;;;28.13;nan
55685;BME280;41883;49.544;8.646;2023-07-13T10:10:53;100649.13;;;28.03;nan
55685;BME280;41883;49.544;8.646;2023-07-13T10:13:27;100657.41;;;27.75;nan
55685;BME280;41883;49.544;8.646;2023-07-13T10:15:55;100654.22;;;27.46;nan
55685;BME280;41883;49.544;8.646;2023-07-13T10:18:24;100659.25;;;27.27;nan
55685;BME280;41883;49.544;8.646;2023-07-13T10:20:54;100656.53;;;27.27;nan
55685;BME280;41883;49.544;8.646;2023-07-13T10:23:27;100661.78;;;27.12;nan
55685;BME280;41883;49.544;8.646;2023-07-13T10:25:56;100661.34;;;26.93;nan
55685;BME280;41883;49.544;8.646;2023-07-13T10:28:34;100659.06;;;26.80;nan
55685;BME280;41883;49.544;8.646;2023-07-13T10:31:02;100656.47;;;26.63;nan
55685;BME280;41883;49.544;8.646;2023-07-13T10:33:30;100646.94;;;26.38;nan
55685;BME280;41883;49.544;8.646;2023-07-13T10:39:03;100663.56;;;26.47;nan
55685;BME280;41883;49.544;8.646;2023-07-13T10:41:34;100663.31;;;26.98;nan
55685;BME280;41883;49.544;8.646;2023-07-13T10:44:01;100663.59;;;27.28;nan
55685;BME280;41883;49.544;8.646;2023-07-13T10:46:30;100657.75;;;27.47;nan
55685;BME280;41883;49.544;8.646;2023-07-13T10:49:01;100658.75;;;27.78;nan
55685;BME280;41883;49.544;8.646;2023-07-13T10:51:29;100663.84;;;27.64;nan
55685;BME280;41883;49.544;8.646;2023-07-13T10:54:19;100660.94;;;27.39;nan
55685;BME280;41883;49.544;8.646;2023-07-13T10:56:48;100653.50;;;27.24;nan
55685;BME280;41883;49.544;8.646;2023-07-13T10:59:25;100658.78;;;27.41;nan
55685;BME280;41883;49.544;8.646;2023-07-13T11:04:40;100652.50;;;28.35;nan
55685;BME280;41883;49.544;8.646;2023-07-13T11:07:18;100654.91;;;30.21;nan
55685;BME280;41883;49.544;8.646;2023-07-13T11:09:52;100655.44;;;32.81;nan
55685;BME280;41883;49.544;8.646;2023-07-13T11:12:28;100657.47;;;34.88;nan
55685;BME280;41883;49.544;8.646;2023-07-13T11:18:00;100655.09;;;33.20;nan
55685;BME280;41883;49.544;8.646;2023-07-13T11:20:37;100656.81;;;31.73;nan
55685;BME280;41883;49.544;8.646;2023-07-13T11:23:17;100658.72;;;31.15;nan
55685;BME280;41883;49.544;8.646;2023-07-13T11:25:44;100658.81;;;31.04;nan
55685;BME280;41883;49.544;8.646;2023-07-13T11:30:45;100647.75;;;29.50;nan
55685;BME280;41883;49.544;8.646;2023-07-13T11:35:49;100646.31;;;30.54;nan
55685;BME280;41883;49.544;8.646;2023-07-13T11:38:30;100649.50;;;30.66;nan
55685;BME280;41883;49.544;8.646;2023-07-13T11:41:01;100644.69;;;30.53;nan
55685;BME280;41883;49.544;8.646;2023-07-13T11:43:29;100643.97;;;30.32;nan
55685;BME280;41883;49.544;8.646;2023-07-13T11:45:54;100644.13;;;30.51;nan
55685;BME280;41883;49.544;8.646;2023-07-13T11:48:26;100647.03;;;31.09;nan
55685;BME280;41883;49.544;8.646;2023-07-13T11:50:58;100634.94;;;30.86;nan
55685;BME280;41883;49.544;8.646;2023-07-13T11:53:27;100640.72;;;32.77;nan
55685;BME280;41883;49.544;8.646;2023-07-13T11:55:53;100635.66;;;34.05;nan
55685;BME280;41883;49.544;8.646;2023-07-13T11:58:22;100632.97;;;35.54;nan
55685;BME280;41883;49.544;8.646;2023-07-13T12:00:49;100632.69;;;36.83;nan
55685;BME280;41883;49.544;8.646;2023-07-13T12:03:20;100647.56;;;36.21;nan
55685;BME280;41883;49.544;8.646;2023-07-13T12:06:01;100631.91;;;35.41;nan
55685;BME280;41883;49.544;8.646;2023-07-13T12:08:28;100637.44;;;33.27;nan
55685;BME280;41883;49.544;8.646;2023-07-13T12:10:59;100637.28;;;31.61;nan
55685;BME280;41883;49.544;8.646;2023-07-13T12:13:27;100635.44;;;30.43;nan
55685;BME280;41883;49.544;8.646;2023-07-13T12:15:54;100627.94;;;29.09;nan
55685;BME280;41883;49.544;8.646;2023-07-13T12:18:23;100641.22;;;28.79;nan
55685;BME280;41883;49.544;8.646;2023-07-13T12:20:56;100634.69;;;29.32;nan
55685;BME280;41883;49.544;8.646;2023-07-13T12:23:32;100635.75;;;30.42;nan
55685;BME280;41883;49.544;8.646;2023-07-13T12:25:59;100647.22;;;30.44;nan
55685;BME280;41883;49.544;8.646;2023-07-13T12:31:04;100632.66;;;29.94;nan
55685;BME280;41883;49.544;8.646;2023-07-13T12:33:31;100643.13;;;29.46;nan
55685;BME280;41883;49.544;8.646;2023-07-13T12:36:03;100638.25;;;29.01;nan
55685;BME280;41883;49.544;8.646;2023-07-13T12:38:31;100645.00;;;28.63;nan
55685;BME280;41883;49.544;8.646;2023-07-13T12:40:57;100646.38;;;28.86;nan
55685;BME280;41883;49.544;8.646;2023-07-13T12:43:23;100653.22;;;28.99;nan
55685;BME280;41883;49.544;8.646;2023-07-13T12:46:02;100659.78;;;29.13;nan
55685;BME280;41883;49.544;8.646;2023-07-13T12:48:28;100646.41;;;29.22;nan
55685;BME280;41883;49.544;8.646;2023-07-13T12:50:55;100650.78;;;29.49;nan
55685;BME280;41883;49.544;8.646;2023-07-13T12:53:30;100657.03;;;29.39;nan
55685;BME280;41883;49.544;8.646;2023-07-13T12:55:59;100656.72;;;29.51;nan
55685;BME280;41883;49.544;8.646;2023-07-13T12:58:29;100657.28;;;29.53;nan
55685;BME280;41883;49.544;8.646;2023-07-13T13:00:57;100661.66;;;29.49;nan
55685;BME280;41883;49.544;8.646;2023-07-13T13:03:31;100657.88;;;29.39;nan
55685;BME280;41883;49.544;8.646;2023-07-13T13:06:06;100661.34;;;29.55;nan
55685;BME280;41883;49.544;8.646;2023-07-13T13:08:48;100655.44;;;29.23;nan
55685;BME280;41883;49.544;8.646;2023-07-13T13:11:18;100657.00;;;29.54;nan
55685;BME280;41883;49.544;8.646;2023-07-13T13:13:44;100652.59;;;29.89;nan
55685;BME280;41883;49.544;8.646;2023-07-13T13:18:59;100661.94;;;30.43;nan
55685;BME280;41883;49.544;8.646;2023-07-13T13:21:27;100670.72;;;30.24;nan
55685;BME280;41883;49.544;8.646;2023-07-13T13:23:53;100667.25;;;30.09;nan
55685;BME280;41883;49.544;8.646;2023-07-13T13:26:20;100666.75;;;29.91;nan
55685;BME280;41883;49.544;8.646;2023-07-13T13:28:46;100663.03;;;29.51;nan
55685;BME280;41883;49.544;8.646;2023-07-13T13:31:13;100672.56;;;29.38;nan
55685;BME280;41883;49.544;8.646;2023-07-13T13:33:40;100669.56;;;28.94;nan
55685;BME280;41883;49.544;8.646;2023-07-13T13:36:18;100668.09;;;28.55;nan
55685;BME280;41883;49.544;8.646;2023-07-13T13:38:45;100671.38;;;28.57;nan
55685;BME280;41883;49.544;8.646;2023-07-13T13:41:12;100676.00;;;28.57;nan
55685;BME280;41883;49.544;8.646;2023-07-13T13:43:38;100680.09;;;28.54;nan
55685;BME280;41883;49.544;8.646;2023-07-13T13:46:13;100668.06;;;28.45;nan
55685;BME280;41883;49.544;8.646;2023-07-13T13:48:39;100670.25;;;27.85;nan
55685;BME280;41883;49.544;8.646;2023-07-13T13:51:26;100675.78;;;27.58;nan
55685;BME280;41883;49.544;8.646;2023-07-13T13:53:51;100669.34;;;27.74;nan